sensor_id;sensor_type;location;lat;lon;timestamp;temperature;humidity
4725;DHT22;2376;53.544;10.226;2023-10-08T00:01:38;12.40;99.90
4725;DHT22;2376;53.544;10.226;2023-10-08T00:04:08;12.40;99.90
4725;DHT22;2376;53.544;10.226;2023-10-08T00:06:37;12.30;99.90
4725;DHT22;2376;53.544;10.226;2023-10-08T00:09:04;12.30;99.90
4725;DHT22;2376;53.544;10.226;2023-10-08T00:11:34;12.30;99.90
4725;DHT22;2376;53.544;10.226;2023-10-08T00:14:03;12.20;99.90
4725;DHT22;2376;53.544;10.226;2023-10-08T00:16:34;12.20;99.90
4725;DHT22;2376;53.544;10.226;2023-10-08T00:19:04;12.20;99.90
4725;DHT22;2376;53.544;10.226;2023-10-08T00:21:36;12.30;99.90
4725;DHT22;2376;53.544;10.226;2023-10-08T00:24:04;12.30;99.90
4725;DHT22;2376;53.544;10.226;2023-10-08T00:26:33;12.20;99.90
4725;DHT22;2376;53.544;10.226;2023-10-08T00:29:06;12.20;99.90
4725;DHT22;2376;53.544;10.226;2023-10-08T00:31:41;12.30;99.90
4725;DHT22;2376;53.544;10.226;2023-10-08T00:34:10;12.20;99.90
4725;DHT22;2376;53.544;10.226;2023-10-08T00:36:40;12.20;99.90
4725;DHT22;2376;53.544;10.226;2023-10-08T00:39:08;12.20;99.90
4725;DHT22;2376;53.544;10.226;2023-10-08T00:41:40;12.10;99.90
4725;DHT22;2376;53.544;10.226;2023-10-08T00:44:08;12.10;99.90
4725;DHT22;2376;53.544;10.226;2023-10-08T00:46:38;12.00;99.90
4725;DHT22;2376;53.544;10.226;2023-10-08T00:49:09;11.90;99.90
4725;DHT22;2376;53.544;10.226;2023-10-08T00:51:52;11.90;99.90
4725;DHT22;2376;53.544;10.226;2023-10-08T00:54:44;12.00;99.90
4725;DHT22;2376;53.544;10.226;2023-10-08T00:57:21;12.00;99.90
4725;DHT22;2376;53.544;10.226;2023-10-08T00:59:49;12.00;99.90
4725;DHT22;2376;53.544;10.226;2023-10-08T01:02:19;12.00;99.90
4725;DHT22;2376;53.544;10.226;2023-10-08T01:04:52;12.10;99.90
4725;DHT22;2376;53.544;10.226;2023-10-08T01:07:21;12.10;99.90
4725;DHT22;2376;53.544;10.226;2023-10-08T01:09:49;12.10;99.90
4725;DHT22;2376;53.544;10.226;2023-10-08T01:12:18;12.10;99.90
4725;DHT22;2376;53.544;10.226;2023-10-08T01:14:50;12.00;99.90
4725;DHT22;2376;53.544;10.226;2023-10-08T01:17:19;12.00;99.90
4725;DHT22;2376;53.544;10.226;2023-10-08T01:19:50;11.90;99.90
4725;DHT22;2376;53.544;10.226;2023-10-08T01:22:23;11.80;99.90
4725;DHT22;2376;53.544;10.226;2023-10-08T01:24:54;11.80;99.90
4725;DHT22;2376;53.544;10.226;2023-10-08T01:27:21;11.80;99.90
4725;DHT22;2376;53.544;10.226;2023-10-08T01:29:50;11.70;99.90
4725;DHT22;2376;53.544;10.226;2023-10-08T01:32:17;11.70;99.90
4725;DHT22;2376;53.544;10.226;2023-10-08T01:34:45;11.70;99.90
4725;DHT22;2376;53.544;10.226;2023-10-08T01:37:13;11.90;99.90
4725;DHT22;2376;53.544;10.226;2023-10-08T01:39:43;11.90;99.90
4725;DHT22;2376;53.544;10.226;2023-10-08T01:42:11;11.90;99.90
4725;DHT22;2376;53.544;10.226;2023-10-08T01:44:43;11.90;99.90
4725;DHT22;2376;53.544;10.226;2023-10-08T01:47:12;11.90;99.90
4725;DHT22;2376;53.544;10.226;2023-10-08T01:49:39;11.90;99.90
4725;DHT22;2376;53.544;10.226;2023-10-08T01:52:08;11.90;99.90
4725;DHT22;2376;53.544;10.226;2023-10-08T01:54:39;11.80;99.90
4725;DHT22;2376;53.544;10.226;2023-10-08T01:57:07;11.90;99.90
4725;DHT22;2376;53.544;10.226;2023-10-08T01:59:35;12.00;99.90
4725;DHT22;2376;53.544;10.226;2023-10-08T02:02:03;12.00;99.90
4725;DHT22;2376;53.544;10.226;2023-10-08T02:04:31;11.90;99.90
4725;DHT22;2376;53.544;10.226;2023-10-08T02:07:01;11.90;99.90
4725;DHT22;2376;53.544;10.226;2023-10-08T02:09:29;12.00;99.90
4725;DHT22;2376;53.544;10.226;2023-10-08T02:11:56;12.10;99.90
4725;DHT22;2376;53.544;10.226;2023-10-08T02:14:25;12.10;99.90
4725;DHT22;2376;53.544;10.226;2023-10-08T02:16:56;12.10;99.90
4725;DHT22;2376;53.544;10.226;2023-10-08T02:19:22;12.00;99.90
4725;DHT22;2376;53.544;10.226;2023-10-08T02:21:52;12.10;99.90
4725;DHT22;2376;53.544;10.226;2023-10-08T02:24:20;12.10;99.90
4725;DHT22;2376;53.544;10.226;2023-10-08T02:26:50;12.10;99.90
4725;DHT22;2376;53.544;10.226;2023-10-08T02:29:16;12.10;99.90
4725;DHT22;2376;53.544;10.226;2023-10-08T02:31:44;12.10;99.90
4725;DHT22;2376;53.544;10.226;2023-10-08T02:34:11;12.10;99.90
4725;DHT22;2376;53.544;10.226;2023-10-08T02:36:39;12.00;99.90
4725;DHT22;2376;53.544;10.226;2023-10-08T02:39:07;11.90;99.90
4725;DHT22;2376;53.544;10.226;2023-10-08T02:41:39;11.90;99.90
4725;DHT22;2376;53.544;10.226;2023-10-08T02:44:07;11.90;99.90
4725;DHT22;2376;53.544;10.226;2023-10-08T02:46:38;11.90;99.90
4725;DHT22;2376;53.544;10.226;2023-10-08T02:49:08;12.00;99.90
4725;DHT22;2376;53.544;10.226;2023-10-08T02:51:36;11.90;99.90
4725;DHT22;2376;53.544;10.226;2023-10-08T02:54:05;11.90;99.90
4725;DHT22;2376;53.544;10.226;2023-10-08T02:56:33;11.90;99.90
4725;DHT22;2376;53.544;10.226;2023-10-08T02:59:00;11.90;99.90
4725;DHT22;2376;53.544;10.226;2023-10-08T03:01:28;11.90;99.90
4725;DHT22;2376;53.544;10.226;2023-10-08T03:03:59;12.00;99.90
4725;DHT22;2376;53.544;10.226;2023-10-08T03:06:31;12.00;99.90
4725;DHT22;2376;53.544;10.226;2023-10-08T03:08:58;12.00;99.90
4725;DHT22;2376;53.544;10.226;2023-10-08T03:11:29;12.00;99.90
4725;DHT22;2376;53.544;10.226;2023-10-08T03:13:56;11.90;99.90
4725;DHT22;2376;53.544;10.226;2023-10-08T03:16:24;11.90;99.90
4725;DHT22;2376;53.544;10.226;2023-10-08T03:18:59;11.90;99.90
4725;DHT22;2376;53.544;10.226;2023-10-08T03:21:26;11.90;99.90
4725;DHT22;2376;53.544;10.226;2023-10-08T03:24:08;11.90;99.90
4725;DHT22;2376;53.544;10.226;2023-10-08T03:26:49;11.90;99.90
4725;DHT22;2376;53.544;10.226;2023-10-08T03:29:21;11.80;99.90
4725;DHT22;2376;53.544;10.226;2023-10-08T03:31:55;11.80;99.90
4725;DHT22;2376;53.544;10.226;2023-10-08T03:34:24;11.70;99.90
4725;DHT22;2376;53.544;10.226;2023-10-08T03:36:54;11.70;99.90
4725;DHT22;2376;53.544;10.226;2023-10-08T03:39:32;11.80;99.90
4725;DHT22;2376;53.544;10.226;2023-10-08T03:42:19;11.80;99.90
4725;DHT22;2376;53.544;10.226;2023-10-08T03:44:46;11.80;99.90
4725;DHT22;2376;53.544;10.226;2023-10-08T03:47:16;11.80;99.90
4725;DHT22;2376;53.544;10.226;2023-10-08T03:49:45;11.80;99.90
4725;DHT22;2376;53.544;10.226;2023-10-08T03:52:12;11.80;99.90
4725;DHT22;2376;53.544;10.226;2023-10-08T03:54:40;11.80;99.90
4725;DHT22;2376;53.544;10.226;2023-10-08T03:57:14;11.70;99.90
4725;DHT22;2376;53.544;10.226;2023-10-08T03:59:50;11.60;99.90
4725;DHT22;2376;53.544;10.226;2023-10-08T04:02:24;11.60;99.90
4725;DHT22;2376;53.544;10.226;2023-10-08T04:05:05;11.60;99.90
4725;DHT22;2376;53.544;10.226;2023-10-08T04:07:44;11.60;99.90
4725;DHT22;2376;53.544;10.226;2023-10-08T04:10:34;11.60;99.90
4725;DHT22;2376;53.544;10.226;2023-10-08T04:13:25;11.50;99.90
4725;DHT22;2376;53.544;10.226;2023-10-08T04:15:53;11.50;99.90
4725;DHT22;2376;53.544;10.226;2023-10-08T04:18:20;11.50;99.90
4725;DHT22;2376;53.544;10.226;2023-10-08T04:20:47;11.50;99.90
4725;DHT22;2376;53.544;10.226;2023-10-08T04:23:26;11.50;99.90
4725;DHT22;2376;53.544;10.226;2023-10-08T04:25:55;11.50;99.90
4725;DHT22;2376;53.544;10.226;2023-10-08T04:28:23;11.50;99.90
4725;DHT22;2376;53.544;10.226;2023-10-08T04:30:54;11.40;99.90
4725;DHT22;2376;53.544;10.226;2023-10-08T04:33:27;11.40;99.90
4725;DHT22;2376;53.544;10.226;2023-10-08T04:35:57;11.50;99.90
4725;DHT22;2376;53.544;10.226;2023-10-08T04:38:27;11.40;99.90
4725;DHT22;2376;53.544;10.226;2023-10-08T04:40:56;11.40;99.90
4725;DHT22;2376;53.544;10.226;2023-10-08T04:43:34;11.40;99.90
4725;DHT22;2376;53.544;10.226;2023-10-08T04:46:04;11.40;99.90
4725;DHT22;2376;53.544;10.226;2023-10-08T04:48:32;11.40;99.90
4725;DHT22;2376;53.544;10.226;2023-10-08T04:50:59;11.30;99.90
4725;DHT22;2376;53.544;10.226;2023-10-08T04:53:27;11.30;99.90
4725;DHT22;2376;53.544;10.226;2023-10-08T04:56:00;11.30;99.90
4725;DHT22;2376;53.544;10.226;2023-10-08T04:58:31;11.30;99.90
4725;DHT22;2376;53.544;10.226;2023-10-08T05:01:02;11.30;99.90
4725;DHT22;2376;53.544;10.226;2023-10-08T05:03:56;11.20;99.90
4725;DHT22;2376;53.544;10.226;2023-10-08T05:06:49;11.20;99.90
4725;DHT22;2376;53.544;10.226;2023-10-08T05:09:27;11.20;99.90
4725;DHT22;2376;53.544;10.226;2023-10-08T05:12:11;11.20;99.90
4725;DHT22;2376;53.544;10.226;2023-10-08T05:14:55;11.20;99.90
4725;DHT22;2376;53.544;10.226;2023-10-08T05:17:43;11.10;99.90
4725;DHT22;2376;53.544;10.226;2023-10-08T05:20:23;11.20;99.90
4725;DHT22;2376;53.544;10.226;2023-10-08T05:23:06;11.10;99.90
4725;DHT22;2376;53.544;10.226;2023-10-08T05:25:46;11.10;99.90
4725;DHT22;2376;53.544;10.226;2023-10-08T05:28:23;11.10;99.90
4725;DHT22;2376;53.544;10.226;2023-10-08T05:30:51;11.10;99.90
4725;DHT22;2376;53.544;10.226;2023-10-08T05:33:19;11.10;99.90
4725;DHT22;2376;53.544;10.226;2023-10-08T05:36:11;11.10;99.90
4725;DHT22;2376;53.544;10.226;2023-10-08T05:38:43;11.10;99.90
4725;DHT22;2376;53.544;10.226;2023-10-08T05:41:26;11.00;99.90
4725;DHT22;2376;53.544;10.226;2023-10-08T05:44:05;10.90;99.90
4725;DHT22;2376;53.544;10.226;2023-10-08T05:46:49;10.90;99.90
4725;DHT22;2376;53.544;10.226;2023-10-08T05:49:33;10.90;99.90
4725;DHT22;2376;53.544;10.226;2023-10-08T05:52:20;11.00;99.90
4725;DHT22;2376;53.544;10.226;2023-10-08T05:55:07;11.00;99.90
4725;DHT22;2376;53.544;10.226;2023-10-08T05:57:43;11.00;99.90
4725;DHT22;2376;53.544;10.226;2023-10-08T06:00:18;11.00;99.90
4725;DHT22;2376;53.544;10.226;2023-10-08T06:03:10;11.00;99.90
4725;DHT22;2376;53.544;10.226;2023-10-08T06:05:57;11.00;99.90
4725;DHT22;2376;53.544;10.226;2023-10-08T06:08:49;11.00;99.90
4725;DHT22;2376;53.544;10.226;2023-10-08T06:11:18;11.00;99.90
4725;DHT22;2376;53.544;10.226;2023-10-08T06:14:03;11.00;99.90
4725;DHT22;2376;53.544;10.226;2023-10-08T06:16:39;11.00;99.90
4725;DHT22;2376;53.544;10.226;2023-10-08T06:19:10;11.00;99.90
4725;DHT22;2376;53.544;10.226;2023-10-08T06:21:38;11.00;99.90
4725;DHT22;2376;53.544;10.226;2023-10-08T06:24:06;11.00;99.90
4725;DHT22;2376;53.544;10.226;2023-10-08T06:26:36;11.10;99.90
4725;DHT22;2376;53.544;10.226;2023-10-08T06:29:09;11.10;99.90
4725;DHT22;2376;53.544;10.226;2023-10-08T06:31:45;11.10;99.90
4725;DHT22;2376;53.544;10.226;2023-10-08T06:34:17;11.10;99.90
4725;DHT22;2376;53.544;10.226;2023-10-08T06:36:47;11.10;99.90
4725;DHT22;2376;53.544;10.226;2023-10-08T06:39:17;11.40;99.90
4725;DHT22;2376;53.544;10.226;2023-10-08T06:41:44;12.00;99.90
4725;DHT22;2376;53.544;10.226;2023-10-08T06:44:12;12.00;99.90
4725;DHT22;2376;53.544;10.226;2023-10-08T06:46:40;11.90;99.90
4725;DHT22;2376;53.544;10.226;2023-10-08T06:49:08;11.80;99.90
4725;DHT22;2376;53.544;10.226;2023-10-08T06:51:38;11.60;99.90
4725;DHT22;2376;53.544;10.226;2023-10-08T06:54:07;11.50;99.90
4725;DHT22;2376;53.544;10.226;2023-10-08T06:56:37;11.40;99.90
4725;DHT22;2376;53.544;10.226;2023-10-08T06:59:04;11.40;99.90
4725;DHT22;2376;53.544;10.226;2023-10-08T07:01:32;11.40;99.90
4725;DHT22;2376;53.544;10.226;2023-10-08T07:04:05;11.30;99.90
4725;DHT22;2376;53.544;10.226;2023-10-08T07:06:37;11.20;99.90
4725;DHT22;2376;53.544;10.226;2023-10-08T07:09:05;11.30;99.90
4725;DHT22;2376;53.544;10.226;2023-10-08T07:11:40;11.30;99.90
4725;DHT22;2376;53.544;10.226;2023-10-08T07:14:11;11.30;99.90
4725;DHT22;2376;53.544;10.226;2023-10-08T07:16:39;11.20;99.90
4725;DHT22;2376;53.544;10.226;2023-10-08T07:19:07;11.20;99.90
4725;DHT22;2376;53.544;10.226;2023-10-08T07:21:43;11.20;99.90
4725;DHT22;2376;53.544;10.226;2023-10-08T07:24:11;11.20;99.90
4725;DHT22;2376;53.544;10.226;2023-10-08T07:26:42;11.10;99.90
4725;DHT22;2376;53.544;10.226;2023-10-08T07:29:13;11.20;99.90
4725;DHT22;2376;53.544;10.226;2023-10-08T07:31:42;11.30;99.90
4725;DHT22;2376;53.544;10.226;2023-10-08T07:34:14;11.30;99.90
4725;DHT22;2376;53.544;10.226;2023-10-08T07:36:51;11.30;99.90
4725;DHT22;2376;53.544;10.226;2023-10-08T07:39:19;11.30;99.90
4725;DHT22;2376;53.544;10.226;2023-10-08T07:42:01;11.30;99.90
4725;DHT22;2376;53.544;10.226;2023-10-08T07:44:30;11.30;99.90
4725;DHT22;2376;53.544;10.226;2023-10-08T07:46:57;11.40;99.90
4725;DHT22;2376;53.544;10.226;2023-10-08T07:49:25;11.30;99.90
4725;DHT22;2376;53.544;10.226;2023-10-08T07:51:55;11.50;99.90
4725;DHT22;2376;53.544;10.226;2023-10-08T07:54:24;11.60;99.90
4725;DHT22;2376;53.544;10.226;2023-10-08T07:56:53;11.50;99.90
4725;DHT22;2376;53.544;10.226;2023-10-08T07:59:26;11.60;99.90
4725;DHT22;2376;53.544;10.226;2023-10-08T08:01:52;11.60;99.90
4725;DHT22;2376;53.544;10.226;2023-10-08T08:04:20;11.70;99.90
4725;DHT22;2376;53.544;10.226;2023-10-08T08:06:48;11.80;99.90
4725;DHT22;2376;53.544;10.226;2023-10-08T08:09:16;11.80;99.90
4725;DHT22;2376;53.544;10.226;2023-10-08T08:11:45;11.70;99.90
4725;DHT22;2376;53.544;10.226;2023-10-08T08:14:13;11.90;99.90
4725;DHT22;2376;53.544;10.226;2023-10-08T08:16:43;12.00;99.90
4725;DHT22;2376;53.544;10.226;2023-10-08T08:19:14;12.00;99.90
4725;DHT22;2376;53.544;10.226;2023-10-08T08:21:41;11.90;99.90
4725;DHT22;2376;53.544;10.226;2023-10-08T08:24:11;12.00;99.90
4725;DHT22;2376;53.544;10.226;2023-10-08T08:26:39;12.20;99.90
4725;DHT22;2376;53.544;10.226;2023-10-08T08:29:26;12.10;99.90
4725;DHT22;2376;53.544;10.226;2023-10-08T08:31:55;11.90;99.90
4725;DHT22;2376;53.544;10.226;2023-10-08T08:34:23;11.90;99.90
4725;DHT22;2376;53.544;10.226;2023-10-08T08:36:49;12.00;99.90
4725;DHT22;2376;53.544;10.226;2023-10-08T08:39:16;12.00;99.90
4725;DHT22;2376;53.544;10.226;2023-10-08T08:41:59;12.10;99.90
4725;DHT22;2376;53.544;10.226;2023-10-08T08:44:28;12.30;99.90
4725;DHT22;2376;53.544;10.226;2023-10-08T08:46:58;12.50;99.90
4725;DHT22;2376;53.544;10.226;2023-10-08T08:49:26;12.60;99.90
4725;DHT22;2376;53.544;10.226;2023-10-08T08:51:55;12.70;99.90
4725;DHT22;2376;53.544;10.226;2023-10-08T08:54:26;12.90;99.90
4725;DHT22;2376;53.544;10.226;2023-10-08T08:56:56;13.10;99.90
4725;DHT22;2376;53.544;10.226;2023-10-08T08:59:23;13.20;99.90
4725;DHT22;2376;53.544;10.226;2023-10-08T09:01:50;12.90;99.90
4725;DHT22;2376;53.544;10.226;2023-10-08T09:04:27;12.90;99.90
4725;DHT22;2376;53.544;10.226;2023-10-08T09:06:54;12.90;99.90
4725;DHT22;2376;53.544;10.226;2023-10-08T09:09:21;12.80;99.90
4725;DHT22;2376;53.544;10.226;2023-10-08T09:11:48;12.90;99.90
4725;DHT22;2376;53.544;10.226;2023-10-08T09:14:17;13.10;99.90
4725;DHT22;2376;53.544;10.226;2023-10-08T09:16:44;13.30;99.90
4725;DHT22;2376;53.544;10.226;2023-10-08T09:19:12;13.40;99.90
4725;DHT22;2376;53.544;10.226;2023-10-08T09:21:59;13.50;99.90
4725;DHT22;2376;53.544;10.226;2023-10-08T09:24:26;13.70;99.90
4725;DHT22;2376;53.544;10.226;2023-10-08T09:26:54;13.50;99.90
4725;DHT22;2376;53.544;10.226;2023-10-08T09:29:22;13.60;99.90
4725;DHT22;2376;53.544;10.226;2023-10-08T09:31:53;13.50;99.90
4725;DHT22;2376;53.544;10.226;2023-10-08T09:34:21;13.50;99.90
4725;DHT22;2376;53.544;10.226;2023-10-08T09:36:49;13.40;99.90
4725;DHT22;2376;53.544;10.226;2023-10-08T09:39:17;13.40;99.90
4725;DHT22;2376;53.544;10.226;2023-10-08T09:41:50;13.40;99.90
4725;DHT22;2376;53.544;10.226;2023-10-08T09:44:18;13.60;99.90
4725;DHT22;2376;53.544;10.226;2023-10-08T09:46:48;13.50;99.90
4725;DHT22;2376;53.544;10.226;2023-10-08T09:49:17;13.60;99.90
4725;DHT22;2376;53.544;10.226;2023-10-08T09:51:51;13.60;99.90
4725;DHT22;2376;53.544;10.226;2023-10-08T09:54:20;13.80;99.90
4725;DHT22;2376;53.544;10.226;2023-10-08T09:56:48;14.00;99.90
4725;DHT22;2376;53.544;10.226;2023-10-08T09:59:16;13.90;99.90
4725;DHT22;2376;53.544;10.226;2023-10-08T10:01:44;14.00;99.90
4725;DHT22;2376;53.544;10.226;2023-10-08T10:04:11;13.90;99.90
4725;DHT22;2376;53.544;10.226;2023-10-08T10:06:38;13.90;99.90
4725;DHT22;2376;53.544;10.226;2023-10-08T10:09:20;13.90;99.90
4725;DHT22;2376;53.544;10.226;2023-10-08T10:11:48;14.00;99.90
4725;DHT22;2376;53.544;10.226;2023-10-08T10:14:15;14.20;99.90
4725;DHT22;2376;53.544;10.226;2023-10-08T10:16:43;14.10;99.90
4725;DHT22;2376;53.544;10.226;2023-10-08T10:19:16;13.80;99.90
4725;DHT22;2376;53.544;10.226;2023-10-08T10:21:45;13.90;99.90
4725;DHT22;2376;53.544;10.226;2023-10-08T10:24:28;14.00;99.90
4725;DHT22;2376;53.544;10.226;2023-10-08T10:27:10;13.80;99.90
4725;DHT22;2376;53.544;10.226;2023-10-08T10:29:37;13.80;99.90
4725;DHT22;2376;53.544;10.226;2023-10-08T10:32:05;13.90;99.90
4725;DHT22;2376;53.544;10.226;2023-10-08T10:34:31;13.90;99.90
4725;DHT22;2376;53.544;10.226;2023-10-08T10:37:00;14.00;99.90
4725;DHT22;2376;53.544;10.226;2023-10-08T10:39:35;14.20;99.90
4725;DHT22;2376;53.544;10.226;2023-10-08T10:42:08;14.10;99.90
4725;DHT22;2376;53.544;10.226;2023-10-08T10:44:46;14.30;99.90
4725;DHT22;2376;53.544;10.226;2023-10-08T10:47:15;14.40;99.90
4725;DHT22;2376;53.544;10.226;2023-10-08T10:50:01;14.40;99.90
4725;DHT22;2376;53.544;10.226;2023-10-08T10:52:52;14.60;99.90
4725;DHT22;2376;53.544;10.226;2023-10-08T10:55:20;14.60;99.90
4725;DHT22;2376;53.544;10.226;2023-10-08T10:57:57;14.70;99.90
4725;DHT22;2376;53.544;10.226;2023-10-08T11:00:30;14.80;99.90
4725;DHT22;2376;53.544;10.226;2023-10-08T11:03:22;14.90;99.90
4725;DHT22;2376;53.544;10.226;2023-10-08T11:05:52;14.60;99.90
4725;DHT22;2376;53.544;10.226;2023-10-08T11:08:21;14.60;99.90
4725;DHT22;2376;53.544;10.226;2023-10-08T11:10:52;14.60;99.90
4725;DHT22;2376;53.544;10.226;2023-10-08T11:13:24;14.80;99.90
4725;DHT22;2376;53.544;10.226;2023-10-08T11:15:54;15.00;99.90
4725;DHT22;2376;53.544;10.226;2023-10-08T11:18:25;15.10;99.90
4725;DHT22;2376;53.544;10.226;2023-10-08T11:20:53;15.00;99.90
4725;DHT22;2376;53.544;10.226;2023-10-08T11:23:41;14.90;99.90
4725;DHT22;2376;53.544;10.226;2023-10-08T11:26:10;14.70;99.90
4725;DHT22;2376;53.544;10.226;2023-10-08T11:28:38;14.70;99.90
4725;DHT22;2376;53.544;10.226;2023-10-08T11:31:08;14.50;99.90
4725;DHT22;2376;53.544;10.226;2023-10-08T11:33:37;14.50;99.90
4725;DHT22;2376;53.544;10.226;2023-10-08T11:36:05;14.60;99.90
4725;DHT22;2376;53.544;10.226;2023-10-08T11:38:43;14.70;99.90
4725;DHT22;2376;53.544;10.226;2023-10-08T11:41:15;14.60;99.90
4725;DHT22;2376;53.544;10.226;2023-10-08T11:43:53;14.50;99.90
4725;DHT22;2376;53.544;10.226;2023-10-08T11:46:23;14.70;99.90
4725;DHT22;2376;53.544;10.226;2023-10-08T11:48:53;14.70;99.90
4725;DHT22;2376;53.544;10.226;2023-10-08T11:51:23;14.80;99.90
4725;DHT22;2376;53.544;10.226;2023-10-08T11:53:50;15.00;99.90
4725;DHT22;2376;53.544;10.226;2023-10-08T11:56:18;15.30;99.90
4725;DHT22;2376;53.544;10.226;2023-10-08T11:58:48;15.60;99.90
4725;DHT22;2376;53.544;10.226;2023-10-08T12:01:16;15.40;99.90
4725;DHT22;2376;53.544;10.226;2023-10-08T12:03:43;15.40;99.90
4725;DHT22;2376;53.544;10.226;2023-10-08T12:06:10;15.40;99.90
4725;DHT22;2376;53.544;10.226;2023-10-08T12:08:41;15.30;99.90
4725;DHT22;2376;53.544;10.226;2023-10-08T12:11:10;15.40;99.90
4725;DHT22;2376;53.544;10.226;2023-10-08T12:13:39;15.40;95.50
4725;DHT22;2376;53.544;10.226;2023-10-08T12:16:11;15.50;93.70
4725;DHT22;2376;53.544;10.226;2023-10-08T12:18:46;15.20;89.10
4725;DHT22;2376;53.544;10.226;2023-10-08T12:21:18;15.20;84.00
4725;DHT22;2376;53.544;10.226;2023-10-08T12:23:45;15.50;86.30
4725;DHT22;2376;53.544;10.226;2023-10-08T12:26:12;15.70;95.10
4725;DHT22;2376;53.544;10.226;2023-10-08T12:28:42;16.00;94.60
4725;DHT22;2376;53.544;10.226;2023-10-08T12:31:11;16.00;95.20
4725;DHT22;2376;53.544;10.226;2023-10-08T12:33:38;15.80;81.90
4725;DHT22;2376;53.544;10.226;2023-10-08T12:36:05;15.60;81.00
4725;DHT22;2376;53.544;10.226;2023-10-08T12:38:37;15.30;79.80
4725;DHT22;2376;53.544;10.226;2023-10-08T12:41:04;15.30;75.20
4725;DHT22;2376;53.544;10.226;2023-10-08T12:43:37;15.40;78.10
4725;DHT22;2376;53.544;10.226;2023-10-08T12:46:05;15.30;75.90
4725;DHT22;2376;53.544;10.226;2023-10-08T12:48:36;15.20;80.10
4725;DHT22;2376;53.544;10.226;2023-10-08T12:51:03;15.30;81.40
4725;DHT22;2376;53.544;10.226;2023-10-08T12:53:32;15.40;77.20
4725;DHT22;2376;53.544;10.226;2023-10-08T12:56:02;15.60;76.90
4725;DHT22;2376;53.544;10.226;2023-10-08T12:58:32;15.70;86.00
4725;DHT22;2376;53.544;10.226;2023-10-08T13:01:05;15.70;73.80
4725;DHT22;2376;53.544;10.226;2023-10-08T13:03:35;15.80;74.70
4725;DHT22;2376;53.544;10.226;2023-10-08T13:06:07;16.10;79.90
4725;DHT22;2376;53.544;10.226;2023-10-08T13:08:37;16.20;83.70
4725;DHT22;2376;53.544;10.226;2023-10-08T13:11:04;16.20;93.60
4725;DHT22;2376;53.544;10.226;2023-10-08T13:13:31;16.20;95.70
4725;DHT22;2376;53.544;10.226;2023-10-08T13:15:58;16.00;84.00
4725;DHT22;2376;53.544;10.226;2023-10-08T13:18:29;15.90;94.40
4725;DHT22;2376;53.544;10.226;2023-10-08T13:20:58;15.70;94.20
4725;DHT22;2376;53.544;10.226;2023-10-08T13:23:26;15.70;85.20
4725;DHT22;2376;53.544;10.226;2023-10-08T13:25:53;15.60;84.40
4725;DHT22;2376;53.544;10.226;2023-10-08T13:28:20;15.60;85.90
4725;DHT22;2376;53.544;10.226;2023-10-08T13:30:48;15.70;93.50
4725;DHT22;2376;53.544;10.226;2023-10-08T13:33:17;15.80;95.10
4725;DHT22;2376;53.544;10.226;2023-10-08T13:35:46;15.70;93.40
4725;DHT22;2376;53.544;10.226;2023-10-08T13:38:15;15.90;95.40
4725;DHT22;2376;53.544;10.226;2023-10-08T13:40:42;16.10;97.60
4725;DHT22;2376;53.544;10.226;2023-10-08T13:43:28;16.20;98.70
4725;DHT22;2376;53.544;10.226;2023-10-08T13:46:00;16.20;91.80
4725;DHT22;2376;53.544;10.226;2023-10-08T13:48:30;16.10;86.60
4725;DHT22;2376;53.544;10.226;2023-10-08T13:51:00;16.00;92.70
4725;DHT22;2376;53.544;10.226;2023-10-08T13:53:26;16.10;97.10
4725;DHT22;2376;53.544;10.226;2023-10-08T13:55:56;16.20;98.70
4725;DHT22;2376;53.544;10.226;2023-10-08T13:58:23;16.30;99.90
4725;DHT22;2376;53.544;10.226;2023-10-08T14:00:50;16.30;98.40
4725;DHT22;2376;53.544;10.226;2023-10-08T14:03:18;16.30;99.40
4725;DHT22;2376;53.544;10.226;2023-10-08T14:05:47;16.30;99.90
4725;DHT22;2376;53.544;10.226;2023-10-08T14:08:17;16.30;99.90
4725;DHT22;2376;53.544;10.226;2023-10-08T14:10:44;16.30;99.40
4725;DHT22;2376;53.544;10.226;2023-10-08T14:13:10;16.20;97.30
4725;DHT22;2376;53.544;10.226;2023-10-08T14:15:37;16.10;94.30
4725;DHT22;2376;53.544;10.226;2023-10-08T14:18:10;16.10;98.80
4725;DHT22;2376;53.544;10.226;2023-10-08T14:20:42;16.10;99.90
4725;DHT22;2376;53.544;10.226;2023-10-08T14:23:12;16.20;99.90
4725;DHT22;2376;53.544;10.226;2023-10-08T14:25:43;16.20;99.90
4725;DHT22;2376;53.544;10.226;2023-10-08T14:28:11;16.20;99.90
4725;DHT22;2376;53.544;10.226;2023-10-08T14:30:48;16.20;99.90
4725;DHT22;2376;53.544;10.226;2023-10-08T14:33:19;16.00;99.90
4725;DHT22;2376;53.544;10.226;2023-10-08T14:35:49;16.00;99.90
4725;DHT22;2376;53.544;10.226;2023-10-08T14:38:34;16.00;99.90
4725;DHT22;2376;53.544;10.226;2023-10-08T14:41:19;15.90;99.90
4725;DHT22;2376;53.544;10.226;2023-10-08T14:44:03;15.90;99.90
4725;DHT22;2376;53.544;10.226;2023-10-08T14:46:32;15.90;99.90
4725;DHT22;2376;53.544;10.226;2023-10-08T14:49:03;15.90;99.90
4725;DHT22;2376;53.544;10.226;2023-10-08T14:51:36;15.90;99.90
4725;DHT22;2376;53.544;10.226;2023-10-08T14:54:03;15.80;99.90
4725;DHT22;2376;53.544;10.226;2023-10-08T14:56:33;15.80;99.90
4725;DHT22;2376;53.544;10.226;2023-10-08T14:59:00;15.70;99.90
4725;DHT22;2376;53.544;10.226;2023-10-08T15:01:27;15.70;99.90
4725;DHT22;2376;53.544;10.226;2023-10-08T15:03:54;15.70;99.90
4725;DHT22;2376;53.544;10.226;2023-10-08T15:06:21;15.70;99.90
4725;DHT22;2376;53.544;10.226;2023-10-08T15:08:48;15.60;99.90
4725;DHT22;2376;53.544;10.226;2023-10-08T15:11:15;15.50;99.90
4725;DHT22;2376;53.544;10.226;2023-10-08T15:13:43;15.50;99.90
4725;DHT22;2376;53.544;10.226;2023-10-08T15:16:11;15.50;99.90
4725;DHT22;2376;53.544;10.226;2023-10-08T15:18:38;15.50;99.90
4725;DHT22;2376;53.544;10.226;2023-10-08T15:21:08;15.50;99.90
4725;DHT22;2376;53.544;10.226;2023-10-08T15:23:34;15.50;99.90
4725;DHT22;2376;53.544;10.226;2023-10-08T15:26:03;15.40;99.90
4725;DHT22;2376;53.544;10.226;2023-10-08T15:28:30;15.50;99.90
4725;DHT22;2376;53.544;10.226;2023-10-08T15:30:59;15.40;99.90
4725;DHT22;2376;53.544;10.226;2023-10-08T15:33:26;15.40;99.90
4725;DHT22;2376;53.544;10.226;2023-10-08T15:35:52;15.40;99.90
4725;DHT22;2376;53.544;10.226;2023-10-08T15:38:19;15.30;99.90
4725;DHT22;2376;53.544;10.226;2023-10-08T15:40:46;15.30;99.90
4725;DHT22;2376;53.544;10.226;2023-10-08T15:43:15;15.30;99.90
4725;DHT22;2376;53.544;10.226;2023-10-08T15:45:41;15.30;99.90
4725;DHT22;2376;53.544;10.226;2023-10-08T15:48:11;15.30;99.90
4725;DHT22;2376;53.544;10.226;2023-10-08T15:50:38;15.20;99.90
4725;DHT22;2376;53.544;10.226;2023-10-08T15:53:05;15.20;99.90
4725;DHT22;2376;53.544;10.226;2023-10-08T15:55:32;15.20;99.90
4725;DHT22;2376;53.544;10.226;2023-10-08T15:57:58;15.20;99.90
4725;DHT22;2376;53.544;10.226;2023-10-08T16:00:25;15.20;99.90
4725;DHT22;2376;53.544;10.226;2023-10-08T16:02:52;15.10;99.90
4725;DHT22;2376;53.544;10.226;2023-10-08T16:05:20;15.10;99.90
4725;DHT22;2376;53.544;10.226;2023-10-08T16:07:48;15.10;99.90
4725;DHT22;2376;53.544;10.226;2023-10-08T16:10:14;15.10;99.90